createdAt,value
2022-11-28T00:01:23.818Z,57.40
2022-11-28T00:03:51.535Z,56.90
2022-11-28T00:06:19.600Z,55.00
2022-11-28T00:08:47.554Z,54.90
2022-11-28T00:11:16.439Z,55.00
2022-11-28T00:13:45.154Z,54.50
2022-11-28T00:16:21.356Z,56.00
2022-11-28T00:18:50.306Z,57.30
2022-11-28T00:21:18.454Z,62.20
2022-11-28T00:23:47.527Z,67.80
2022-11-28T00:26:15.125Z,59.90
2022-11-28T00:28:43.168Z,60.50
2022-11-28T00:31:19.350Z,66.40
2022-11-28T00:33:47.364Z,59.60
2022-11-28T00:36:15.828Z,57.10
2022-11-28T00:38:43.743Z,58.40
2022-11-28T00:41:14.041Z,56.50
2022-11-28T00:43:42.623Z,57.00
2022-11-28T00:46:11.051Z,56.30
2022-11-28T00:48:38.910Z,57.90
2022-11-28T00:51:19.559Z,58.10
2022-11-28T00:53:48.834Z,59.30
2022-11-28T00:56:19.456Z,55.20
2022-11-28T00:58:49.652Z,58.70
2022-11-28T01:01:18.963Z,56.90
2022-11-28T01:03:48.300Z,56.40
2022-11-28T01:06:25.049Z,58.10
2022-11-28T01:08:52.928Z,58.10
2022-11-28T01:11:21.569Z,59.70
2022-11-28T01:13:49.721Z,65.60
2022-11-28T01:16:17.603Z,64.60
2022-11-28T01:18:45.427Z,56.30
2022-11-28T01:21:13.114Z,56.70
2022-11-28T01:23:40.727Z,54.90
2022-11-28T01:26:09.556Z,54.50
2022-11-28T01:28:37.173Z,56.80
2022-11-28T01:31:06.548Z,56.10
2022-11-28T01:33:34.361Z,57.80
2022-11-28T01:36:02.359Z,58.00
2022-11-28T01:38:30.207Z,55.20
2022-11-28T01:40:58.185Z,57.60
2022-11-28T01:43:25.944Z,55.30
2022-11-28T01:45:54.154Z,60.20
2022-11-28T01:48:27.849Z,62.90
2022-11-28T01:51:00.437Z,66.20
2022-11-28T01:53:33.521Z,61.00
2022-11-28T01:56:06.135Z,56.60
2022-11-28T01:58:35.207Z,56.10
2022-11-28T02:01:04.177Z,59.90
2022-11-28T02:03:38.529Z,65.70
2022-11-28T02:06:06.349Z,68.90
2022-11-28T02:08:35.419Z,57.50
2022-11-28T02:11:12.103Z,62.90
2022-11-28T02:13:44.579Z,59.90
2022-11-28T02:16:30.583Z,54.00
2022-11-28T02:19:11.137Z,54.00
2022-11-28T02:21:46.599Z,54.00
2022-11-28T02:24:33.268Z,54.30
2022-11-28T02:27:19.641Z,51.90
2022-11-28T02:30:07.099Z,50.30
2022-11-28T02:32:55.482Z,65.70
2022-11-28T02:35:29.312Z,50.70
2022-11-28T02:38:09.506Z,49.60
2022-11-28T02:40:49.206Z,49.50
2022-11-28T02:43:48.111Z,49.30
2022-11-28T02:46:40.869Z,52.40
2022-11-28T02:49:13.560Z,50.50
2022-11-28T02:51:56.800Z,50.10
2022-11-28T02:54:25.041Z,49.40
2022-11-28T02:56:54.028Z,51.20
2022-11-28T02:59:37.110Z,49.60
2022-11-28T03:02:28.993Z,49.40
2022-11-28T03:05:08.879Z,52.70
2022-11-28T03:08:01.488Z,55.90
2022-11-28T03:10:38.046Z,60.40
2022-11-28T03:13:30.558Z,55.50
2022-11-28T03:16:24.914Z,58.50
2022-11-28T03:18:55.285Z,63.70
2022-11-28T03:21:30.629Z,64.60
2022-11-28T03:24:01.452Z,64.70
2022-11-28T03:26:55.412Z,68.60
2022-11-28T03:29:34.465Z,64.70
2022-11-28T03:32:07.847Z,65.30
2022-11-28T03:34:38.781Z,64.90
2022-11-28T03:37:23.907Z,61.30
2022-11-28T03:39:59.148Z,62.20
2022-11-28T03:42:30.061Z,62.30
2022-11-28T03:45:03.988Z,62.40
2022-11-28T03:47:35.405Z,61.10
2022-11-28T03:50:07.027Z,53.40
2022-11-28T03:52:45.755Z,51.20
2022-11-28T03:55:18.769Z,50.10
2022-11-28T03:57:57.217Z,50.00
2022-11-28T04:00:25.184Z,49.10
2022-11-28T04:03:02.913Z,51.60
2022-11-28T04:05:48.839Z,53.50
2022-11-28T04:08:32.959Z,52.10
2022-11-28T04:11:07.852Z,52.20
2022-11-28T04:13:49.749Z,53.10
2022-11-28T04:16:56.057Z,53.70
2022-11-28T04:19:29.539Z,51.80
2022-11-28T04:22:04.362Z,50.70
2022-11-28T04:24:35.234Z,51.30
2022-11-28T04:27:06.615Z,50.80
2022-11-28T04:29:45.684Z,51.00
2022-11-28T04:32:14.704Z,51.10
2022-11-28T04:34:44.588Z,49.20
2022-11-28T04:37:14.911Z,52.10
2022-11-28T04:39:45.272Z,50.50
2022-11-28T04:42:19.369Z,54.40
2022-11-28T04:44:49.837Z,54.70
2022-11-28T04:47:17.944Z,56.80
2022-11-28T04:49:45.992Z,57.10
2022-11-28T04:52:53.414Z,57.00
2022-11-28T04:55:35.503Z,59.70
2022-11-28T04:58:23.036Z,55.80
2022-11-28T05:00:53.093Z,58.00
2022-11-28T05:03:21.250Z,58.80
2022-11-28T05:05:51.444Z,56.80
2022-11-28T05:08:19.731Z,54.50
2022-11-28T05:10:47.475Z,53.90
2022-11-28T05:13:15.451Z,52.50
2022-11-28T05:15:43.250Z,51.00
2022-11-28T05:18:11.113Z,50.90
2022-11-28T05:20:39.118Z,49.50
2022-11-28T05:23:06.943Z,50.90
2022-11-28T05:25:34.726Z,49.40
2022-11-28T05:28:02.366Z,49.30
2022-11-28T05:30:30.001Z,48.10
2022-11-28T05:32:59.306Z,47.80
2022-11-28T05:35:27.653Z,49.50
2022-11-28T05:37:55.404Z,46.90
2022-11-28T05:40:23.156Z,44.90
2022-11-28T05:42:50.829Z,44.90
2022-11-28T05:45:18.417Z,44.70
2022-11-28T05:47:46.068Z,42.00
2022-11-28T05:50:13.718Z,43.10
2022-11-28T05:52:41.318Z,41.20
2022-11-28T05:55:09.295Z,42.20
2022-11-28T05:57:36.968Z,41.90
2022-11-28T06:00:05.212Z,40.20
2022-11-28T06:02:39.333Z,41.00
2022-11-28T06:05:27.366Z,41.00
2022-11-28T06:07:55.070Z,40.30
2022-11-28T06:10:22.851Z,40.60
2022-11-28T06:12:50.489Z,39.00
2022-11-28T06:15:18.203Z,38.20
2022-11-28T06:17:45.817Z,39.90
2022-11-28T06:20:13.625Z,38.00
2022-11-28T06:22:41.235Z,39.80
2022-11-28T06:25:08.911Z,40.20
2022-11-28T06:27:36.531Z,39.40
2022-11-28T06:30:07.113Z,40.60
2022-11-28T06:32:35.799Z,40.70
2022-11-28T06:35:03.620Z,40.40
2022-11-28T06:37:31.242Z,39.80
2022-11-28T06:39:59.229Z,42.00
2022-11-28T06:42:26.857Z,38.80
2022-11-28T06:44:54.441Z,39.70
2022-11-28T06:47:22.269Z,41.40
2022-11-28T06:49:49.879Z,40.40
2022-11-28T06:52:17.522Z,39.50
2022-11-28T06:54:45.230Z,40.20
2022-11-28T06:57:13.024Z,40.30
2022-11-28T06:59:40.894Z,40.70
2022-11-28T07:02:10.987Z,38.80
2022-11-28T07:04:38.682Z,40.70
2022-11-28T07:07:06.388Z,38.80
2022-11-28T07:09:34.013Z,40.10
2022-11-28T07:12:01.810Z,37.50
2022-11-28T07:14:32.971Z,37.50
2022-11-28T07:17:01.013Z,36.00
2022-11-28T07:19:28.700Z,36.10
2022-11-28T07:21:56.310Z,35.30
2022-11-28T07:24:24.180Z,35.90
2022-11-28T07:26:51.824Z,35.40
2022-11-28T07:29:19.553Z,35.90
2022-11-28T07:31:47.252Z,36.00
2022-11-28T07:34:14.959Z,34.60
2022-11-28T07:36:42.821Z,35.00
2022-11-28T07:39:13.955Z,37.10
2022-11-28T07:41:41.559Z,37.40
2022-11-28T07:44:09.792Z,35.00
2022-11-28T07:46:38.686Z,36.20
2022-11-28T07:49:06.409Z,35.20
2022-11-28T07:51:34.428Z,36.40
2022-11-28T07:54:04.675Z,37.30
2022-11-28T07:57:04.601Z,37.80
2022-11-28T07:59:22.798Z,39.50
2022-11-28T08:01:50.683Z,38.90
2022-11-28T08:04:19.329Z,40.60
2022-11-28T08:06:47.053Z,39.70
2022-11-28T08:09:14.817Z,40.30
2022-11-28T08:11:43.024Z,40.00
2022-11-28T08:14:10.976Z,40.60
2022-11-28T08:16:41.281Z,42.10
2022-11-28T08:19:09.032Z,41.20
2022-11-28T08:21:37.536Z,41.70
2022-11-28T08:24:06.186Z,43.20
2022-11-28T08:26:34.380Z,41.80
2022-11-28T08:29:02.682Z,42.30
2022-11-28T08:31:32.859Z,42.20
2022-11-28T08:34:02.120Z,42.50
2022-11-28T08:36:29.826Z,42.80
2022-11-28T08:41:47.672Z,44.20
2022-11-28T08:44:16.100Z,46.70
2022-11-28T08:46:43.952Z,47.00
2022-11-28T08:49:11.638Z,46.10
2022-11-28T08:51:39.236Z,46.90
2022-11-28T08:54:06.899Z,44.40
2022-11-28T08:56:34.660Z,44.60
2022-11-28T08:59:02.407Z,45.80
2022-11-28T09:01:30.220Z,47.40
2022-11-28T09:03:58.823Z,44.80
2022-11-28T09:06:26.542Z,44.30
2022-11-28T09:08:54.137Z,46.30
2022-11-28T09:11:22.910Z,43.20
2022-11-28T09:13:51.087Z,45.40
2022-11-28T09:16:18.851Z,44.10
2022-11-28T09:18:46.870Z,42.10
2022-11-28T09:21:15.466Z,42.00
2022-11-28T09:23:44.691Z,43.10
2022-11-28T09:26:18.065Z,45.00
2022-11-28T09:28:45.821Z,41.10
2022-11-28T09:31:15.123Z,40.90
2022-11-28T09:33:43.680Z,40.10
2022-11-28T09:36:17.337Z,40.40
2022-11-28T09:38:45.421Z,39.10
2022-11-28T09:41:25.043Z,39.30
2022-11-28T09:43:55.234Z,36.90
2022-11-28T09:46:33.086Z,37.30
2022-11-28T09:49:04.967Z,38.00
2022-11-28T09:51:47.593Z,38.10
2022-11-28T09:54:25.358Z,38.80
2022-11-28T09:56:53.088Z,38.30
2022-11-28T09:59:28.516Z,38.10
2022-11-28T10:02:34.828Z,37.50
2022-11-28T10:05:36.433Z,36.50
2022-11-28T10:08:22.424Z,35.00
2022-11-28T10:11:24.512Z,36.10
2022-11-28T10:14:09.838Z,34.70
2022-11-28T10:17:02.676Z,33.60
2022-11-28T10:19:57.302Z,33.80
2022-11-28T10:22:40.793Z,31.60
2022-11-28T10:25:29.482Z,33.10
2022-11-28T10:27:57.862Z,31.70
2022-11-28T10:30:34.216Z,33.40
2022-11-28T10:33:01.929Z,32.70
2022-11-28T10:35:44.119Z,32.10
2022-11-28T10:38:14.696Z,31.60
2022-11-28T10:40:50.015Z,30.80
2022-11-28T10:43:23.820Z,30.70
2022-11-28T10:46:02.885Z,30.70
2022-11-28T10:48:48.427Z,29.90
2022-11-28T10:51:24.275Z,29.30
2022-11-28T10:54:10.512Z,29.30
2022-11-28T10:56:47.728Z,28.60
2022-11-28T10:59:44.339Z,31.70
2022-11-28T11:02:40.450Z,31.30
2022-11-28T11:05:14.643Z,32.00
2022-11-28T11:07:57.689Z,32.50
2022-11-28T11:10:33.788Z,34.50
2022-11-28T11:13:14.477Z,34.70
2022-11-28T11:15:42.287Z,35.40
2022-11-28T11:18:25.862Z,35.20
2022-11-28T11:21:17.998Z,35.80
2022-11-28T11:23:46.636Z,37.00
2022-11-28T11:26:23.791Z,36.50
2022-11-28T11:28:52.265Z,34.50
2022-11-28T11:31:23.687Z,36.00
2022-11-28T11:34:16.015Z,38.30
2022-11-28T11:36:43.800Z,35.20
2022-11-28T11:39:23.468Z,36.20
2022-11-28T11:42:13.771Z,38.00
2022-11-28T11:44:45.349Z,39.10
2022-11-28T11:47:13.115Z,37.80
2022-11-28T11:49:44.106Z,39.30
2022-11-28T11:52:12.907Z,39.50
2022-11-28T11:54:54.835Z,39.90
2022-11-28T11:57:33.120Z,41.10
2022-11-28T12:00:22.928Z,42.40
2022-11-28T12:03:17.478Z,43.00
2022-11-28T12:09:23.330Z,46.90
2022-11-28T12:11:55.208Z,46.60
2022-11-28T12:14:32.753Z,48.10
2022-11-28T12:17:48.793Z,49.40
2022-11-28T12:20:48.962Z,49.50
2022-11-28T12:23:39.358Z,51.00
2022-11-28T12:26:37.901Z,50.80
2022-11-28T12:29:22.259Z,53.70
2022-11-28T12:31:59.909Z,54.50
2022-11-28T12:34:52.444Z,54.50
2022-11-28T12:37:32.971Z,54.30
2022-11-28T12:40:10.204Z,53.80
2022-11-28T12:42:50.396Z,52.60
2022-11-28T12:45:35.041Z,55.10
2022-11-28T12:48:23.885Z,54.50
2022-11-28T12:51:16.786Z,55.00
2022-11-28T12:53:59.680Z,52.80
2022-11-28T12:56:51.580Z,51.00
2022-11-28T12:59:52.729Z,52.50
2022-11-28T13:02:23.260Z,51.10
2022-11-28T13:05:10.605Z,50.90
2022-11-28T13:07:49.022Z,51.50
2022-11-28T13:10:33.486Z,50.70
2022-11-28T13:13:05.808Z,50.40
2022-11-28T13:15:47.199Z,48.80
2022-11-28T13:18:50.585Z,47.90
2022-11-28T13:21:39.936Z,48.00
2022-11-28T13:24:22.395Z,50.00
2022-11-28T13:27:09.500Z,48.80
2022-11-28T13:29:45.062Z,48.30
2022-11-28T13:32:21.316Z,47.00
2022-11-28T13:34:49.474Z,46.20
2022-11-28T13:41:00.498Z,47.40
2022-11-28T13:43:52.511Z,43.90
2022-11-28T13:46:20.476Z,44.50
2022-11-28T13:51:40.937Z,45.30
2022-11-28T13:54:17.979Z,47.10
2022-11-28T13:56:50.592Z,47.60
2022-11-28T13:59:21.135Z,48.20
2022-11-28T14:01:56.297Z,46.30
2022-11-28T14:04:24.818Z,46.00
2022-11-28T14:06:59.580Z,44.10
2022-11-28T14:09:47.680Z,45.90
2022-11-28T14:12:34.177Z,44.00
2022-11-28T14:15:07.556Z,44.90
2022-11-28T14:17:52.294Z,39.60
2022-11-28T14:20:31.343Z,45.50
2022-11-28T14:23:13.728Z,43.80
2022-11-28T14:25:44.597Z,45.00
2022-11-28T14:28:36.727Z,44.20
2022-11-28T14:31:10.998Z,44.50
2022-11-28T14:33:44.060Z,42.90
2022-11-28T14:36:35.948Z,45.40
2022-11-28T14:39:07.334Z,44.70
2022-11-28T14:42:04.924Z,44.70
2022-11-28T14:44:54.702Z,45.20
2022-11-28T14:47:24.246Z,45.90
2022-11-28T14:50:04.365Z,43.80
2022-11-28T14:52:41.772Z,46.90
2022-11-28T14:55:10.936Z,44.90
2022-11-28T14:58:00.145Z,46.60
2022-11-28T15:00:55.295Z,46.40
2022-11-28T15:03:50.693Z,48.10
2022-11-28T15:06:21.909Z,46.10
2022-11-28T15:09:34.975Z,43.50
2022-11-28T15:12:33.401Z,44.80
2022-11-28T15:15:01.534Z,46.40
2022-11-28T15:17:33.431Z,46.70
2022-11-28T15:20:09.253Z,46.60
2022-11-28T15:22:42.497Z,46.90
2022-11-28T15:25:27.556Z,47.00
2022-11-28T15:27:55.567Z,46.50
2022-11-28T15:30:26.607Z,47.50
2022-11-28T15:32:59.613Z,47.50
2022-11-28T15:35:27.885Z,49.30
2022-11-28T15:37:58.069Z,47.50
2022-11-28T15:40:29.323Z,45.20
2022-11-28T15:42:57.242Z,46.40
2022-11-28T15:45:27.746Z,47.10
2022-11-28T15:47:56.680Z,47.20
2022-11-28T15:50:33.896Z,47.40
2022-11-28T15:53:18.205Z,46.40
2022-11-28T15:55:46.735Z,46.10
2022-11-28T15:58:30.914Z,43.70
2022-11-28T16:01:09.871Z,45.50
2022-11-28T16:03:59.863Z,45.90
2022-11-28T16:06:34.288Z,45.00
2022-11-28T16:09:25.934Z,47.70
2022-11-28T16:11:54.166Z,44.90
2022-11-28T16:14:26.892Z,44.40
2022-11-28T16:16:55.624Z,45.70
2022-11-28T16:19:26.403Z,45.00
2022-11-28T16:21:59.760Z,42.80
2022-11-28T16:24:35.454Z,45.30
2022-11-28T16:27:06.299Z,43.10
2022-11-28T16:29:36.122Z,43.00
2022-11-28T16:32:29.398Z,44.20
2022-11-28T16:35:00.285Z,44.50
2022-11-28T16:37:30.029Z,42.50
2022-11-28T16:40:04.809Z,44.00
2022-11-28T16:42:34.194Z,44.80
2022-11-28T16:45:14.675Z,43.90
2022-11-28T16:47:44.209Z,43.70
2022-11-28T16:50:22.739Z,46.80
2022-11-28T16:52:55.533Z,46.10
2022-11-28T16:55:33.313Z,46.90
2022-11-28T16:58:07.571Z,44.40
2022-11-28T17:00:36.257Z,47.10
2022-11-28T17:03:07.184Z,46.10
2022-11-28T17:05:37.337Z,44.80
2022-11-28T17:08:05.045Z,46.40
2022-11-28T17:10:32.742Z,47.20
2022-11-28T17:13:00.408Z,46.90
2022-11-28T17:15:28.051Z,45.00
2022-11-28T17:17:57.230Z,43.40
2022-11-28T17:20:24.896Z,46.80
2022-11-28T17:22:56.368Z,45.40
2022-11-28T17:25:24.073Z,47.30
2022-11-28T17:27:53.430Z,45.40
2022-11-28T17:30:21.248Z,45.80
2022-11-28T17:32:49.018Z,45.60
2022-11-28T17:35:20.051Z,46.20
2022-11-28T17:37:47.866Z,45.30
2022-11-28T17:40:34.231Z,45.20
2022-11-28T17:43:02.466Z,45.20
2022-11-28T17:45:32.493Z,46.30
2022-11-28T17:48:00.216Z,46.40
2022-11-28T17:50:28.864Z,44.50
2022-11-28T17:52:56.590Z,45.30
2022-11-28T17:55:24.371Z,43.90
2022-11-28T17:57:54.078Z,43.30
2022-11-28T18:00:21.952Z,43.80
2022-11-28T18:02:49.811Z,42.00
2022-11-28T18:05:17.976Z,43.80
2022-11-28T18:07:45.690Z,41.80
2022-11-28T18:10:13.447Z,41.50
2022-11-28T18:12:41.621Z,42.00
2022-11-28T18:15:10.591Z,41.60
2022-11-28T18:17:39.092Z,41.40
2022-11-28T18:20:13.880Z,41.00
2022-11-28T18:22:41.646Z,40.20
2022-11-28T18:25:09.549Z,37.90
2022-11-28T18:27:37.369Z,37.10
2022-11-28T18:30:06.072Z,38.80
2022-11-28T18:32:33.859Z,37.80
2022-11-28T18:35:02.279Z,35.60
2022-11-28T18:37:30.242Z,37.90
2022-11-28T18:39:58.183Z,35.60
2022-11-28T18:42:26.034Z,36.70
2022-11-28T18:44:53.694Z,36.10
2022-11-28T18:47:21.433Z,37.30
2022-11-28T18:49:49.075Z,35.90
2022-11-28T18:52:17.158Z,37.10
2022-11-28T18:54:45.976Z,37.40
2022-11-28T18:57:14.638Z,34.50
2022-11-28T18:59:47.804Z,34.50
2022-11-28T19:02:19.290Z,33.40
2022-11-28T19:04:47.270Z,36.80
2022-11-28T19:07:14.944Z,35.00
2022-11-28T19:09:45.102Z,35.20
2022-11-28T19:12:13.526Z,34.10
2022-11-28T19:14:41.217Z,34.00
2022-11-28T19:17:08.960Z,34.80
2022-11-28T19:19:44.263Z,33.20
2022-11-28T19:22:12.183Z,33.10
2022-11-28T19:24:39.942Z,31.80
2022-11-28T19:27:13.825Z,35.10
2022-11-28T19:29:42.956Z,35.60
2022-11-28T19:32:11.156Z,33.90
2022-11-28T19:34:38.872Z,32.50
2022-11-28T19:37:06.520Z,32.60
2022-11-28T19:39:34.385Z,32.60
2022-11-28T19:42:02.395Z,33.70
2022-11-28T19:44:30.589Z,30.00
2022-11-28T19:46:59.000Z,32.00
2022-11-28T19:49:26.837Z,30.30
2022-11-28T19:51:54.735Z,33.30
2022-11-28T19:54:23.329Z,30.50
2022-11-28T19:56:53.884Z,28.90
2022-11-28T19:59:21.567Z,31.70
2022-11-28T20:01:50.184Z,30.70
2022-11-28T20:04:19.292Z,30.30
2022-11-28T20:06:46.915Z,33.00
2022-11-28T20:09:14.706Z,30.50
2022-11-28T20:11:43.655Z,31.60
2022-11-28T20:14:14.456Z,32.10
2022-11-28T20:16:42.605Z,31.00
2022-11-28T20:19:12.443Z,30.50
2022-11-28T20:21:40.328Z,31.70
2022-11-28T20:24:10.224Z,31.30
2022-11-28T20:26:40.765Z,30.50
2022-11-28T20:29:13.223Z,33.40
2022-11-28T20:31:46.373Z,30.90
2022-11-28T20:34:17.428Z,32.40
2022-11-28T20:36:46.278Z,30.30
2022-11-28T20:39:14.060Z,32.20
2022-11-28T20:41:41.672Z,30.80
2022-11-28T20:44:10.171Z,33.00
2022-11-28T20:46:38.215Z,30.60
2022-11-28T20:49:07.150Z,30.20
2022-11-28T20:51:35.634Z,31.50
2022-11-28T20:54:05.174Z,33.90
2022-11-28T20:57:04.963Z,32.10
2022-11-28T20:59:26.923Z,30.20
2022-11-28T21:01:54.672Z,31.80
2022-11-28T21:04:22.409Z,31.30
2022-11-28T21:06:50.135Z,32.20
2022-11-28T21:09:20.067Z,32.20
2022-11-28T21:11:58.165Z,32.30
2022-11-28T21:14:28.456Z,31.80
2022-11-28T21:16:57.363Z,31.80
2022-11-28T21:19:25.004Z,31.90
2022-11-28T21:21:52.814Z,32.10
2022-11-28T21:24:20.534Z,31.90
2022-11-28T21:26:53.047Z,33.50
2022-11-28T21:29:23.037Z,29.50
2022-11-28T21:31:50.830Z,30.40
2022-11-28T21:34:19.426Z,32.10
2022-11-28T21:36:47.643Z,33.60
2022-11-28T21:39:18.855Z,32.30
2022-11-28T21:41:46.729Z,34.50
2022-11-28T21:44:14.427Z,35.70
2022-11-28T21:46:42.190Z,32.40
2022-11-28T21:49:10.016Z,33.40
2022-11-28T21:51:40.537Z,32.80
2022-11-28T21:54:12.641Z,35.10
2022-11-28T21:56:41.051Z,34.20
2022-11-28T21:59:08.809Z,34.70
2022-11-28T22:01:36.500Z,36.10
2022-11-28T22:04:05.446Z,34.50
2022-11-28T22:06:33.793Z,34.40
2022-11-28T22:09:08.626Z,35.40
2022-11-28T22:11:38.438Z,34.30
2022-11-28T22:14:06.469Z,35.20
2022-11-28T22:16:34.731Z,33.50
2022-11-28T22:19:03.989Z,36.50
2022-11-28T22:24:19.481Z,34.40
2022-11-28T22:26:47.540Z,35.30
2022-11-28T22:29:15.557Z,34.70
2022-11-28T22:31:43.509Z,37.40
2022-11-28T22:34:11.840Z,33.50
2022-11-28T22:36:40.163Z,34.40
2022-11-28T22:39:10.858Z,36.00
2022-11-28T22:41:38.894Z,36.10
2022-11-28T22:44:06.539Z,37.50
2022-11-28T22:46:34.724Z,36.50
2022-11-28T22:49:03.546Z,36.70
2022-11-28T22:51:31.479Z,36.40
2022-11-28T22:54:01.070Z,36.10
2022-11-28T22:56:31.804Z,37.50
2022-11-28T22:59:00.428Z,36.50
2022-11-28T23:01:30.788Z,35.40
2022-11-28T23:03:59.316Z,34.30
2022-11-28T23:06:30.280Z,35.90
2022-11-28T23:08:59.139Z,36.70
2022-11-28T23:11:30.910Z,33.70
2022-11-28T23:14:00.186Z,35.70
2022-11-28T23:16:30.718Z,36.90
2022-11-28T23:19:00.981Z,38.50
2022-11-28T23:21:31.204Z,34.40
2022-11-28T23:23:59.512Z,35.00
2022-11-28T23:26:30.132Z,36.50
2022-11-28T23:29:00.647Z,37.70
2022-11-28T23:31:30.960Z,34.90
2022-11-28T23:33:59.312Z,36.10
2022-11-28T23:36:30.277Z,36.20
2022-11-28T23:39:01.808Z,37.70
2022-11-28T23:41:30.108Z,37.00
2022-11-28T23:43:58.672Z,37.00
2022-11-28T23:46:27.167Z,34.80
2022-11-28T23:48:54.928Z,34.80
2022-11-28T23:51:24.936Z,34.10
2022-11-28T23:53:53.140Z,34.80
2022-11-28T23:56:23.260Z,35.60
2022-11-28T23:58:51.441Z,34.50
